Time;durP1;ratioP1;P1;durP2;ratioP2;P2;SDS_P1;SDS_P2;PMS_P1;PMS_P2;Temp;Humidity;BMP_temperature;BMP_pressure;BME280_temperature;BME280_humidity;BME280_pressure;Samples;Min_cycle;Max_cycle;Signal;HPM_P1;HPM_P2
2021/06/16 00:00:55;;;;;;;8.83;8.00;;;19.60;99.80;;;;;;6147646;23;20419;-86
2021/06/16 00:03:23;;;;;;;13.70;8.10;;;19.60;99.80;;;;;;6189948;23;20444;-86
2021/06/16 00:05:51;;;;;;;11.10;8.23;;;19.60;99.80;;;;;;6218642;23;20499;-84
2021/06/16 00:08:19;;;;;;;8.83;8.03;;;19.60;99.80;;;;;;6212827;23;20444;-84
2021/06/16 00:10:47;;;;;;;10.73;7.80;;;19.50;99.80;;;;;;6211776;23;20456;-84
2021/06/16 00:13:15;;;;;;;8.47;7.67;;;19.60;99.80;;;;;;6191553;23;21003;-85
2021/06/16 00:15:46;;;;;;;10.10;7.90;;;19.50;99.80;;;;;;6187753;23;20443;-85
2021/06/16 00:18:14;;;;;;;9.03;7.40;;;19.50;99.80;;;;;;6187370;23;20440;-87
2021/06/16 00:20:42;;;;;;;9.60;7.50;;;19.50;99.80;;;;;;6189562;23;20539;-86
2021/06/16 00:23:10;;;;;;;10.03;9.03;;;19.50;99.80;;;;;;6202664;23;20446;-86
2021/06/16 00:25:38;;;;;;;11.70;8.60;;;19.50;99.80;;;;;;6202073;23;20904;-85
2021/06/16 00:28:06;;;;;;;12.97;8.57;;;19.40;99.80;;;;;;6199251;23;20447;-86
2021/06/16 00:30:34;;;;;;;8.87;8.07;;;19.40;99.80;;;;;;6201295;23;20479;-86
2021/06/16 00:33:04;;;;;;;11.77;8.13;;;19.40;99.80;;;;;;6208492;23;20956;-85
2021/06/16 00:35:32;;;;;;;8.60;7.30;;;19.40;99.80;;;;;;6208406;23;20436;-86
2021/06/16 00:38:00;;;;;;;13.27;7.47;;;19.30;99.80;;;;;;6200249;23;20462;-85
2021/06/16 00:40:29;;;;;;;10.43;9.43;;;19.30;99.80;;;;;;6195169;23;20447;-86
2021/06/16 00:42:58;;;;;;;15.90;9.00;;;19.30;99.80;;;;;;6196228;23;20424;-87
2021/06/16 00:45:26;;;;;;;9.20;8.30;;;19.40;99.80;;;;;;6198587;23;20440;-85
2021/06/16 00:47:56;;;;;;;8.40;7.60;;;19.40;99.80;;;;;;6199011;23;20960;-86
2021/06/16 00:50:28;;;;;;;12.47;8.30;;;19.40;99.80;;;;;;6199299;23;20438;-86
2021/06/16 00:52:56;;;;;;;9.53;8.10;;;19.40;99.80;;;;;;6197795;23;20519;-86
2021/06/16 00:55:24;;;;;;;10.40;8.53;;;19.40;99.80;;;;;;6196901;23;21035;-86
2021/06/16 00:57:53;;;;;;;10.70;8.40;;;19.40;99.80;;;;;;6193626;23;20443;-85
2021/06/16 01:00:24;;;;;;;9.43;7.57;;;19.30;99.80;;;;;;6178429;23;20436;-86
2021/06/16 01:02:58;;;;;;;10.90;8.80;;;19.30;99.80;;;;;;6202070;23;20440;-86
2021/06/16 01:05:33;;;;;;;10.13;8.53;;;19.30;99.80;;;;;;6207427;23;20450;-86
2021/06/16 01:08:04;;;;;;;9.10;7.60;;;19.30;99.80;;;;;;6207816;23;20440;-87
2021/06/16 01:10:36;;;;;;;8.90;7.83;;;19.30;99.80;;;;;;6197662;23;20436;-85
2021/06/16 01:13:09;;;;;;;10.43;8.43;;;19.30;99.80;;;;;;6198015;23;20450;-86
2021/06/16 01:15:45;;;;;;;9.77;8.30;;;19.30;99.80;;;;;;6197043;23;20920;-86
2021/06/16 01:18:18;;;;;;;13.60;8.20;;;19.30;99.80;;;;;;6206637;23;20439;-86
2021/06/16 01:20:50;;;;;;;12.00;8.77;;;19.20;99.80;;;;;;6191619;23;20428;-85
2021/06/16 01:23:54;;;;;;;13.80;9.33;;;19.20;99.80;;;;;;6187941;23;20432;-85
2021/06/16 01:26:27;;;;;;;9.33;8.40;;;19.20;99.80;;;;;;6154992;22;20459;-88
2021/06/16 01:29:01;;;;;;;8.40;7.60;;;19.20;99.80;;;;;;6167904;23;20471;-85
2021/06/16 01:31:31;;;;;;;11.80;8.40;;;19.20;99.80;;;;;;6177323;23;20447;-85
2021/06/16 01:34:00;;;;;;;8.77;7.83;;;19.20;99.80;;;;;;6185608;23;20433;-85
2021/06/16 01:36:30;;;;;;;9.87;7.67;;;19.20;99.80;;;;;;6198057;23;22484;-85
2021/06/16 01:38:58;;;;;;;9.90;8.13;;;19.20;99.80;;;;;;6189536;23;20445;-83
2021/06/16 01:41:28;;;;;;;9.67;8.07;;;19.10;99.80;;;;;;6189359;23;20493;-83
2021/06/16 01:43:56;;;;;;;12.43;8.30;;;19.10;99.80;;;;;;6181566;23;20926;-83
2021/06/16 01:46:26;;;;;;;9.10;8.23;;;19.10;99.80;;;;;;6202970;23;20835;-84
2021/06/16 01:48:55;;;;;;;11.23;8.80;;;19.10;99.80;;;;;;6209173;23;20519;-83
2021/06/16 01:51:25;;;;;;;9.33;8.33;;;19.00;99.80;;;;;;6223710;23;20508;-84
2021/06/16 01:53:54;;;;;;;11.67;8.83;;;19.00;99.80;;;;;;6209452;23;20487;-83
2021/06/16 01:56:23;;;;;;;9.40;8.40;;;19.00;99.80;;;;;;6214996;23;20464;-84
2021/06/16 01:58:54;;;;;;;9.30;8.23;;;18.90;99.80;;;;;;6198946;23;20519;-83
2021/06/16 02:01:24;;;;;;;12.03;8.90;;;19.00;99.80;;;;;;6203421;23;20535;-83
2021/06/16 02:03:54;;;;;;;10.87;8.50;;;18.90;99.80;;;;;;6202557;23;20445;-84
2021/06/16 02:06:27;;;;;;;14.80;9.20;;;18.90;99.80;;;;;;6200575;23;20432;-83
2021/06/16 02:08:56;;;;;;;10.93;8.83;;;18.90;99.80;;;;;;6198647;23;20436;-83
2021/06/16 02:11:24;;;;;;;11.00;8.80;;;18.90;99.80;;;;;;6197736;23;20436;-83
2021/06/16 02:13:57;;;;;;;9.73;8.57;;;18.90;99.80;;;;;;6198864;23;20445;-83
2021/06/16 02:16:32;;;;;;;14.07;9.07;;;18.80;99.80;;;;;;6199230;23;20457;-84
2021/06/16 02:19:04;;;;;;;9.17;8.27;;;18.80;99.80;;;;;;6145470;23;20451;-84
2021/06/16 02:21:32;;;;;;;9.30;8.40;;;18.70;99.80;;;;;;6159005;23;20448;-84
2021/06/16 02:24:01;;;;;;;10.23;7.87;;;18.70;99.80;;;;;;6164702;23;20433;-83
2021/06/16 02:26:31;;;;;;;12.33;8.53;;;18.70;99.80;;;;;;6159253;23;20444;-84
2021/06/16 02:29:01;;;;;;;10.37;8.63;;;18.80;99.80;;;;;;6166711;23;20445;-86
2021/06/16 02:31:29;;;;;;;9.67;7.93;;;18.70;99.80;;;;;;6171546;23;20433;-86
2021/06/16 02:33:57;;;;;;;10.50;7.57;;;18.70;99.80;;;;;;6175355;23;20448;-86
2021/06/16 02:36:26;;;;;;;11.20;8.33;;;18.70;99.80;;;;;;6175094;23;20498;-86
2021/06/16 02:38:59;;;;;;;13.27;8.40;;;18.60;99.80;;;;;;6172995;23;20787;-87
2021/06/16 02:41:27;;;;;;;12.27;8.97;;;18.60;99.80;;;;;;6162842;23;20437;-86
2021/06/16 02:43:56;;;;;;;10.50;8.80;;;18.60;99.80;;;;;;6168465;23;20429;-86
2021/06/16 02:46:27;;;;;;;9.50;8.50;;;18.60;99.80;;;;;;6167102;23;20437;-87
2021/06/16 02:48:56;;;;;;;9.47;8.33;;;18.50;99.80;;;;;;6175025;23;20441;-86
2021/06/16 02:51:24;;;;;;;11.43;9.33;;;18.40;99.80;;;;;;6169210;23;20440;-86
2021/06/16 02:53:53;;;;;;;14.13;8.90;;;18.40;99.80;;;;;;6168694;23;20972;-86
2021/06/16 02:56:23;;;;;;;10.00;8.47;;;18.40;99.80;;;;;;6155377;23;20443;-86
2021/06/16 02:58:53;;;;;;;11.37;8.37;;;18.40;99.80;;;;;;6139881;23;20447;-86
2021/06/16 03:01:22;;;;;;;11.93;8.93;;;18.40;99.80;;;;;;6145865;23;20443;-87
2021/06/16 03:03:53;;;;;;;14.03;9.53;;;18.40;99.80;;;;;;6142751;22;20432;-86
2021/06/16 03:06:23;;;;;;;10.33;8.57;;;18.30;99.80;;;;;;6154928;23;20443;-87
2021/06/16 03:08:55;;;;;;;14.23;8.87;;;18.30;99.80;;;;;;6165742;23;20439;-86
2021/06/16 03:11:24;;;;;;;9.57;8.20;;;18.20;99.80;;;;;;6162951;23;20932;-87
2021/06/16 03:13:53;;;;;;;11.67;8.90;;;18.30;99.80;;;;;;6168818;23;20433;-86
2021/06/16 03:16:21;;;;;;;12.93;9.63;;;18.20;99.80;;;;;;6172524;23;20444;-86
2021/06/16 03:18:50;;;;;;;13.00;8.90;;;18.20;99.80;;;;;;6173739;23;20444;-87
2021/06/16 03:21:19;;;;;;;12.03;9.37;;;18.20;99.80;;;;;;6178691;23;20437;-87
2021/06/16 03:23:49;;;;;;;11.80;9.50;;;18.10;99.80;;;;;;6160316;23;20435;-87
2021/06/16 03:26:19;;;;;;;11.73;9.27;;;18.10;99.80;;;;;;6165238;23;20436;-87
2021/06/16 03:28:50;;;;;;;10.03;8.07;;;18.10;99.80;;;;;;6171313;23;20449;-88
2021/06/16 03:31:19;;;;;;;11.30;9.10;;;18.10;99.80;;;;;;6187492;23;20496;-84
2021/06/16 03:33:48;;;;;;;11.00;9.10;;;18.10;99.80;;;;;;6191369;23;20433;-84
2021/06/16 03:36:20;;;;;;;10.00;8.63;;;18.10;99.80;;;;;;6183959;23;20428;-84
2021/06/16 03:38:50;;;;;;;12.37;9.53;;;18.10;99.80;;;;;;6206272;23;20523;-84
2021/06/16 03:41:18;;;;;;;14.17;8.90;;;18.10;99.80;;;;;;6208424;23;20440;-84
2021/06/16 03:43:48;;;;;;;10.33;9.33;;;18.10;99.80;;;;;;6213095;23;20485;-85
2021/06/16 03:46:18;;;;;;;11.77;9.43;;;18.00;99.80;;;;;;6202922;23;20519;-87
2021/06/16 03:48:49;;;;;;;12.00;9.03;;;18.00;99.80;;;;;;6205992;23;20926;-86
2021/06/16 03:51:18;;;;;;;13.40;8.90;;;18.00;99.80;;;;;;6205480;23;20436;-86
2021/06/16 03:53:50;;;;;;;10.10;8.73;;;18.00;99.80;;;;;;6194492;23;20498;-86
2021/06/16 03:56:18;;;;;;;11.63;9.83;;;18.10;99.80;;;;;;6168336;23;20755;-87
2021/06/16 03:58:47;;;;;;;11.03;9.07;;;18.10;99.80;;;;;;6148603;23;20437;-87
2021/06/16 04:01:15;;;;;;;11.73;9.10;;;18.10;99.80;;;;;;6170101;23;20450;-86
2021/06/16 04:03:44;;;;;;;12.70;9.77;;;18.10;99.80;;;;;;6180766;23;20758;-87
2021/06/16 04:06:14;;;;;;;13.70;10.93;;;18.10;99.80;;;;;;6145180;23;20444;-85
2021/06/16 04:08:44;;;;;;;10.00;8.60;;;18.10;99.80;;;;;;6144415;23;20955;-86
2021/06/16 04:11:15;;;;;;;12.53;9.03;;;18.10;99.80;;;;;;6171841;23;20431;-85
2021/06/16 04:13:43;;;;;;;10.30;8.30;;;18.10;99.80;;;;;;6187881;23;20436;-86
2021/06/16 04:16:12;;;;;;;16.27;9.83;;;18.10;99.80;;;;;;6200414;23;20436;-86
2021/06/16 04:18:41;;;;;;;11.87;9.17;;;18.10;99.80;;;;;;6202596;23;20986;-90
2021/06/16 04:21:10;;;;;;;12.27;9.87;;;18.10;99.80;;;;;;6207318;23;20436;-89
2021/06/16 04:23:38;;;;;;;13.53;9.10;;;18.20;99.80;;;;;;6189967;23;20436;-89
2021/06/16 04:26:05;;;;;;;9.77;8.10;;;18.20;99.80;;;;;;6161886;23;20451;-90
2021/06/16 04:28:35;;;;;;;10.50;9.40;;;18.20;99.80;;;;;;6157642;23;20445;-89
2021/06/16 04:31:03;;;;;;;10.53;9.07;;;18.20;99.80;;;;;;6174872;23;20959;-90
2021/06/16 04:33:33;;;;;;;13.07;9.50;;;18.30;99.80;;;;;;6173265;23;20433;-90
2021/06/16 04:36:02;;;;;;;12.50;8.30;;;18.30;99.80;;;;;;6176056;23;20437;-90
2021/06/16 04:38:34;;;;;;;14.80;8.80;;;18.20;99.80;;;;;;6164857;23;20487;-90
2021/06/16 04:41:02;;;;;;;9.87;8.90;;;18.30;99.80;;;;;;6161203;23;20433;-90
2021/06/16 04:43:31;;;;;;;10.63;9.27;;;18.30;99.80;;;;;;6162154;23;20440;-90
2021/06/16 04:46:00;;;;;;;10.23;9.23;;;18.30;99.80;;;;;;6176261;23;20742;-89
2021/06/16 04:48:28;;;;;;;10.00;8.63;;;18.30;99.80;;;;;;6184369;23;20464;-88
2021/06/16 04:50:56;;;;;;;10.83;8.40;;;18.30;99.80;;;;;;6204159;23;20472;-90
2021/06/16 04:53:24;;;;;;;18.27;8.27;;;18.30;99.80;;;;;;6204787;23;20444;-86
2021/06/16 04:55:52;;;;;;;8.30;7.07;;;18.40;99.80;;;;;;6205434;23;20504;-88
2021/06/16 04:58:24;;;;;;;12.60;8.43;;;18.50;99.80;;;;;;6189885;23;20550;-87
2021/06/16 05:00:52;;;;;;;14.00;8.60;;;18.60;99.80;;;;;;6164081;23;21012;-89
2021/06/16 05:03:21;;;;;;;10.20;9.20;;;18.60;99.80;;;;;;6189037;23;20491;-88
2021/06/16 05:05:49;;;;;;;11.73;9.37;;;18.60;99.80;;;;;;6178245;23;20437;-89
2021/06/16 05:08:17;;;;;;;14.93;9.13;;;18.60;99.80;;;;;;6172390;23;20786;-88
2021/06/16 05:10:45;;;;;;;12.30;9.20;;;18.70;99.80;;;;;;6161998;23;20814;-89
2021/06/16 05:13:13;;;;;;;10.80;8.23;;;18.70;99.80;;;;;;6159809;23;20463;-88
2021/06/16 05:15:42;;;;;;;9.53;8.63;;;18.70;99.80;;;;;;6175939;23;20563;-86
2021/06/16 19:40:33;;;;;;;6.30;5.70;;;26.10;86.40;;;;;;6214885;22;20434;-86
2021/06/16 19:50:30;;;;;;;5.67;5.17;;;25.90;87.20;;;;;;6119263;23;20506;-90
2021/06/16 19:52:58;;;;;;;7.33;6.53;;;25.80;87.00;;;;;;6099157;23;20439;-89
2021/06/16 19:55:28;;;;;;;7.80;6.00;;;25.70;87.40;;;;;;6088839;23;20755;-89
2021/06/16 19:57:57;;;;;;;7.20;6.50;;;25.60;87.80;;;;;;6150371;23;20474;-88
2021/06/16 20:00:29;;;;;;;7.70;6.97;;;25.50;88.00;;;;;;6172787;23;20527;-88
2021/06/16 20:02:57;;;;;;;8.23;6.17;;;25.50;88.00;;;;;;6176996;23;20521;-87
2021/06/16 20:05:25;;;;;;;6.20;5.70;;;25.40;87.90;;;;;;6178734;23;20447;-85
2021/06/16 20:07:53;;;;;;;8.93;6.00;;;25.40;87.80;;;;;;6171658;23;20455;-87
2021/06/16 20:10:22;;;;;;;7.40;5.90;;;25.30;87.90;;;;;;6163278;23;20445;-86
2021/06/16 20:12:51;;;;;;;7.00;6.40;;;25.20;88.30;;;;;;6171152;23;20762;-86
2021/06/16 20:15:20;;;;;;;6.47;5.57;;;;;;;;;;6165804;23;20436;-86
2021/06/16 20:17:49;;;;;;;6.87;6.17;;;25.20;88.90;;;;;;6169337;23;20429;-87
2021/06/16 20:20:18;;;;;;;6.50;6.00;;;25.10;89.00;;;;;;6171699;23;20437;-88
2021/06/16 20:23:04;;;;;;;6.40;5.80;;;25.10;89.10;;;;;;6158601;23;20523;-87
2021/06/16 20:25:33;;;;;;;6.33;5.60;;;25.00;89.40;;;;;;6147257;23;20444;-86
2021/06/16 20:28:02;;;;;;;6.10;5.60;;;25.00;89.70;;;;;;6156900;23;20433;-87
2021/06/16 20:30:31;;;;;;;7.90;6.30;;;25.00;89.70;;;;;;6169712;23;20440;-87
2021/06/16 20:32:59;;;;;;;11.00;5.73;;;25.00;89.80;;;;;;6185151;23;20435;-87
2021/06/16 20:35:28;;;;;;;6.43;5.73;;;24.90;90.30;;;;;;6161920;23;20444;-88
2021/06/16 20:37:58;;;;;;;6.60;5.90;;;;;;;;;;6177692;23;20441;-87
2021/06/16 20:40:27;;;;;;;10.47;5.70;;;24.80;90.20;;;;;;6170337;23;20987;-87
2021/06/16 20:42:56;;;;;;;6.33;5.83;;;24.80;90.20;;;;;;6169671;23;20937;-88
2021/06/16 20:45:28;;;;;;;8.13;5.87;;;24.80;90.10;;;;;;6165090;23;20441;-87
2021/06/16 20:48:00;;;;;;;6.73;6.17;;;24.60;90.30;;;;;;6173361;23;20924;-88
2021/06/16 20:50:37;;;;;;;7.27;6.40;;;24.60;90.30;;;;;;6171666;23;20518;-88
2021/06/16 20:53:07;;;;;;;6.67;5.60;;;24.60;90.40;;;;;;6141960;23;20466;-88
2021/06/16 20:55:35;;;;;;;6.53;5.97;;;24.60;90.40;;;;;;6151525;23;20771;-87
2021/06/16 20:58:03;;;;;;;6.90;6.30;;;24.50;90.70;;;;;;6140333;23;20539;-87
2021/06/16 21:00:33;;;;;;;6.20;5.70;;;24.40;90.90;;;;;;6167239;23;20510;-87
2021/06/16 21:03:01;;;;;;;6.80;6.10;;;;;;;;;;6184261;23;20539;-87
2021/06/16 21:05:33;;;;;;;6.30;5.80;;;;;;;;;;6176392;23;20433;-88
2021/06/16 21:08:03;;;;;;;8.10;6.40;;;24.30;91.30;;;;;;6174429;23;20441;-86
2021/06/16 21:10:31;;;;;;;8.00;5.97;;;24.20;92.00;;;;;;6171845;23;20532;-87
2021/06/16 21:13:00;;;;;;;7.00;6.30;;;24.10;92.00;;;;;;6157203;23;20883;-88
2021/06/16 21:27:52;;;;;;;7.30;6.70;;;23.70;93.40;;;;;;6018281;23;20480;-87
2021/06/16 21:31:11;;;;;;;8.90;7.20;;;23.60;94.20;;;;;;6091151;23;20443;-88
2021/06/16 21:33:41;;;;;;;7.10;6.40;;;23.40;95.10;;;;;;6005367;23;20418;-87
2021/06/16 21:39:50;;;;;;;7.30;6.70;;;23.30;96.20;;;;;;6122095;23;20410;-87
2021/06/16 21:42:18;;;;;;;9.20;6.43;;;23.20;97.20;;;;;;6107066;23;20942;-87
2021/06/16 21:44:49;;;;;;;8.20;7.50;;;23.10;97.80;;;;;;6059065;23;20454;-87
2021/06/16 21:47:40;;;;;;;7.90;6.70;;;23.10;97.30;;;;;;6138945;23;20528;-88
2021/06/16 21:50:11;;;;;;;6.87;6.23;;;23.10;97.50;;;;;;6155296;23;20436;-84
2021/06/16 21:52:39;;;;;;;7.20;6.60;;;23.10;97.90;;;;;;6168347;23;20433;-84
2021/06/16 21:55:09;;;;;;;6.90;6.37;;;23.00;98.10;;;;;;6156859;23;20437;-84
2021/06/16 21:57:39;;;;;;;7.70;7.00;;;23.00;98.50;;;;;;6168461;23;20456;-84
2021/06/16 22:00:11;;;;;;;6.80;6.30;;;23.00;97.60;;;;;;6163448;23;20436;-85
2021/06/16 22:02:39;;;;;;;7.40;6.60;;;23.00;97.60;;;;;;6165206;23;20441;-86
2021/06/16 22:05:10;;;;;;;7.43;6.53;;;22.90;98.00;;;;;;6170326;23;20447;-86
2021/06/16 22:07:40;;;;;;;7.70;7.00;;;22.80;99.00;;;;;;6156991;23;20468;-86
2021/06/16 22:10:10;;;;;;;6.97;6.37;;;22.70;99.00;;;;;;6168556;23;20770;-84
2021/06/16 22:12:38;;;;;;;9.63;7.10;;;22.70;99.30;;;;;;6163270;23;20432;-84
2021/06/16 22:15:08;;;;;;;7.33;6.63;;;22.60;99.30;;;;;;6156697;23;20468;-83
2021/06/16 22:17:37;;;;;;;7.50;6.63;;;22.60;99.60;;;;;;6170155;23;20467;-84
2021/06/16 22:20:08;;;;;;;7.33;6.77;;;22.60;99.70;;;;;;6173516;23;20438;-84
2021/06/16 22:22:38;;;;;;;6.60;6.00;;;22.50;99.80;;;;;;6174332;23;20437;-84
2021/06/16 22:25:08;;;;;;;7.40;6.70;;;22.40;99.80;;;;;;6170435;23;21239;-84
2021/06/16 22:27:37;;;;;;;11.40;6.90;;;22.40;99.80;;;;;;6156190;23;20777;-84
2021/06/16 22:30:07;;;;;;;6.80;5.67;;;22.40;99.50;;;;;;6156318;23;20437;-84
2021/06/16 22:32:36;;;;;;;7.37;6.40;;;22.40;99.70;;;;;;6175677;23;20441;-85
2021/06/16 22:35:04;;;;;;;6.33;5.83;;;22.40;99.40;;;;;;6174016;23;20443;-88
2021/06/16 22:37:33;;;;;;;6.97;6.37;;;22.30;99.30;;;;;;6159670;23;20465;-87
2021/06/16 22:40:03;;;;;;;6.57;5.97;;;22.30;99.20;;;;;;6155775;23;20421;-87
2021/06/16 22:42:31;;;;;;;8.13;6.73;;;22.30;99.20;;;;;;6142803;23;21021;-87
2021/06/16 22:44:59;;;;;;;7.17;6.43;;;;;;;;;;6164199;23;21192;-84
2021/06/16 22:47:27;;;;;;;7.23;6.63;;;22.30;99.60;;;;;;6168606;23;20437;-84
2021/06/16 22:49:55;;;;;;;6.70;6.00;;;22.20;99.70;;;;;;6172967;23;20433;-84
2021/06/16 22:52:23;;;;;;;8.00;7.10;;;22.20;99.20;;;;;;6174442;23;20441;-83
2021/06/16 22:54:51;;;;;;;10.07;6.73;;;22.20;99.50;;;;;;6173951;23;20429;-84
2021/06/16 22:57:20;;;;;;;7.33;6.73;;;22.20;99.30;;;;;;6147687;23;20440;-84
2021/06/16 22:59:48;;;;;;;7.47;6.50;;;22.20;98.90;;;;;;6173970;23;20443;-84
2021/06/16 23:02:16;;;;;;;6.87;6.27;;;22.10;98.90;;;;;;6180748;23;20431;-84
2021/06/16 23:04:44;;;;;;;7.23;6.30;;;22.00;99.00;;;;;;6173959;23;20466;-84
2021/06/16 23:07:12;;;;;;;6.63;6.10;;;;;;;;;;6171339;23;20782;-84
2021/06/16 23:09:40;;;;;;;7.40;6.70;;;22.00;99.40;;;;;;6162003;23;20936;-84
2021/06/16 23:12:09;;;;;;;7.33;6.63;;;22.00;99.20;;;;;;6165140;23;20458;-83
2021/06/16 23:14:39;;;;;;;6.80;6.20;;;22.10;99.50;;;;;;6171658;23;20494;-83
2021/06/16 23:17:07;;;;;;;7.03;6.43;;;22.00;99.80;;;;;;6158307;23;20459;-84
2021/06/16 23:19:35;;;;;;;10.23;6.97;;;21.90;99.80;;;;;;6174528;23;20468;-84
2021/06/16 23:22:04;;;;;;;7.57;6.80;;;21.80;99.80;;;;;;6177948;23;20444;-84
2021/06/16 23:24:36;;;;;;;7.23;6.63;;;21.70;99.80;;;;;;6175412;23;20460;-84
2021/06/16 23:27:06;;;;;;;7.70;7.00;;;21.70;99.80;;;;;;6171513;23;20488;-84
2021/06/16 23:29:34;;;;;;;8.17;6.70;;;21.70;99.80;;;;;;6176059;23;20451;-85
2021/06/16 23:32:04;;;;;;;9.20;7.47;;;21.70;99.80;;;;;;6181709;23;20436;-84
2021/06/16 23:34:33;;;;;;;7.50;6.80;;;21.70;99.80;;;;;;6179654;23;20444;-84
2021/06/16 23:37:01;;;;;;;7.10;6.50;;;21.60;99.80;;;;;;6171599;23;20781;-84
2021/06/16 23:39:29;;;;;;;7.57;6.77;;;21.50;99.80;;;;;;6176277;23;20436;-84
2021/06/16 23:41:57;;;;;;;7.77;6.83;;;21.50;99.80;;;;;;6189474;23;20968;-84
2021/06/16 23:44:25;;;;;;;6.80;6.30;;;21.50;99.80;;;;;;6157616;23;20463;-84
2021/06/16 23:46:53;;;;;;;7.83;7.00;;;21.50;99.80;;;;;;6170425;23;20769;-84
2021/06/16 23:49:22;;;;;;;6.90;6.23;;;21.40;99.80;;;;;;6156715;23;20483;-85
2021/06/16 23:51:50;;;;;;;7.33;6.70;;;21.40;99.80;;;;;;6161810;23;20433;-83
2021/06/16 23:54:18;;;;;;;7.13;6.43;;;21.30;99.80;;;;;;6169267;23;20436;-83
2021/06/16 23:56:46;;;;;;;7.50;6.70;;;21.30;99.80;;;;;;6168908;23;20487;-84
2021/06/16 23:59:14;;;;;;;8.50;7.70;;;21.20;99.80;;;;;;6153878;23;20444;-84
